Time;durP1;ratioP1;P1;durP2;ratioP2;P2;SDS_P1;SDS_P2;PMS_P1;PMS_P2;Temp;Humidity;BMP_temperature;BMP_pressure;BME280_temperature;BME280_humidity;BME280_pressure;Samples;Min_cycle;Max_cycle;Signal;HPM_P1;HPM_P2
2021/01/12 00:00:29;;;;;;;7.63;3.17;;;6.90;99.90;;;;;;4855151;29;20057;-69
2021/01/12 00:02:57;;;;;;;5.30;2.92;;;6.90;99.90;;;;;;4850381;29;20056;-69
2021/01/12 00:05:23;;;;;;;5.93;2.53;;;6.90;99.90;;;;;;4853256;29;20058;-69
2021/01/12 00:07:50;;;;;;;7.50;2.70;;;6.90;99.90;;;;;;4855524;29;20358;-69
2021/01/12 00:10:21;;;;;;;7.82;2.92;;;6.90;99.90;;;;;;4854605;29;20045;-69
2021/01/12 00:12:48;;;;;;;8.13;3.85;;;6.90;99.90;;;;;;4846036;29;20046;-69
2021/01/12 00:15:14;;;;;;;6.97;3.25;;;6.90;99.90;;;;;;4854041;29;20050;-69
2021/01/12 00:17:41;;;;;;;8.13;3.65;;;6.90;99.90;;;;;;4859887;29;20390;-69
2021/01/12 00:20:09;;;;;;;7.25;3.88;;;6.80;99.90;;;;;;4850464;29;20145;-69
2021/01/12 00:22:35;;;;;;;4.97;3.40;;;6.80;99.90;;;;;;4853496;29;20324;-69
2021/01/12 00:25:02;;;;;;;7.03;3.47;;;6.80;99.90;;;;;;4849893;29;20092;-69
2021/01/12 00:27:29;;;;;;;5.20;3.25;;;6.80;99.90;;;;;;4854183;29;20109;-70
2021/01/12 00:29:55;;;;;;;5.18;3.33;;;6.80;99.90;;;;;;4850817;29;20049;-69
2021/01/12 00:32:26;;;;;;;5.47;3.25;;;6.80;99.90;;;;;;4858152;29;20050;-69
2021/01/12 00:34:53;;;;;;;7.22;3.05;;;6.80;99.90;;;;;;4855130;29;20501;-70
2021/01/12 00:37:22;;;;;;;5.32;3.33;;;6.80;99.90;;;;;;4853260;29;20450;-70
2021/01/12 00:39:48;;;;;;;3.65;2.45;;;6.80;99.90;;;;;;4839941;29;20477;-70
2021/01/12 00:42:15;;;;;;;4.55;2.75;;;6.80;99.90;;;;;;4858299;29;20132;-70
2021/01/12 00:44:41;;;;;;;5.18;2.60;;;6.80;99.90;;;;;;4851684;29;20049;-70
2021/01/12 00:47:08;;;;;;;6.68;2.95;;;6.80;99.90;;;;;;4856302;29;20050;-70
2021/01/12 00:49:35;;;;;;;6.72;2.92;;;6.80;99.90;;;;;;4857277;29;20107;-70
2021/01/12 00:52:07;;;;;;;5.03;2.65;;;6.80;99.90;;;;;;4849415;29;20513;-70
2021/01/12 00:54:33;;;;;;;5.30;2.50;;;6.80;99.90;;;;;;4854004;29;20050;-70
2021/01/12 00:57:00;;;;;;;5.53;2.40;;;6.90;99.90;;;;;;4854102;29;20049;-70
2021/01/12 00:59:26;;;;;;;3.72;2.58;;;6.90;99.90;;;;;;4850448;29;20088;-70
2021/01/12 01:01:59;;;;;;;;;;;6.80;99.90;;;;;;4843522;29;20064;-69
2021/01/12 01:04:26;;;;;;;4.60;2.63;;;6.90;99.90;;;;;;4847603;29;19992;-70
2021/01/12 01:06:53;;;;;;;5.25;2.88;;;6.90;99.90;;;;;;4852629;29;20050;-69
2021/01/12 01:09:19;;;;;;;7.28;2.80;;;6.90;99.90;;;;;;4838727;29;20072;-70
2021/01/12 01:11:47;;;;;;;4.10;2.95;;;6.90;99.90;;;;;;4851175;29;20469;-70
2021/01/12 01:14:15;;;;;;;5.38;2.67;;;6.90;99.90;;;;;;4853593;29;20050;-70
2021/01/12 01:16:42;;;;;;;6.05;2.67;;;6.90;99.90;;;;;;4857154;29;20057;-70
2021/01/12 01:19:09;;;;;;;5.65;2.60;;;6.90;99.90;;;;;;4849184;29;20065;-70
2021/01/12 01:21:35;;;;;;;6.05;2.85;;;6.90;99.90;;;;;;4856721;29;20435;-70
2021/01/12 01:24:01;;;;;;;6.28;2.80;;;6.90;99.90;;;;;;4856100;29;20141;-70
2021/01/12 01:26:28;;;;;;;5.10;2.60;;;6.90;99.90;;;;;;4831448;29;20066;-70
2021/01/12 01:28:54;;;;;;;7.05;2.55;;;6.90;99.90;;;;;;4839319;29;20144;-70
2021/01/12 01:31:21;;;;;;;5.82;2.78;;;7.00;99.90;;;;;;4854405;29;20541;-70
2021/01/12 01:33:48;;;;;;;6.00;2.72;;;7.00;99.90;;;;;;4847519;29;20142;-70
2021/01/12 01:36:15;;;;;;;4.75;2.70;;;7.00;99.90;;;;;;4832861;29;20068;-70
2021/01/12 01:38:41;;;;;;;7.18;3.08;;;7.00;99.90;;;;;;4853328;29;20050;-70
2021/01/12 01:41:09;;;;;;;6.30;2.60;;;7.00;99.90;;;;;;4855583;29;20489;-70
2021/01/12 01:43:36;;;;;;;7.47;3.28;;;7.00;99.90;;;;;;4850114;29;20506;-70
2021/01/12 01:46:05;;;;;;;5.35;2.60;;;7.00;99.90;;;;;;4851540;29;20457;-70
2021/01/12 01:48:31;;;;;;;8.50;2.90;;;7.00;99.90;;;;;;4853367;29;20058;-70
2021/01/12 01:51:01;;;;;;;5.15;2.47;;;7.00;99.90;;;;;;4841174;29;20190;-70
2021/01/12 01:53:28;;;;;;;3.65;2.15;;;7.00;99.90;;;;;;4843544;29;20064;-69
2021/01/12 01:56:00;;;;;;;4.88;2.60;;;7.00;99.90;;;;;;4844044;29;20054;-70
2021/01/12 01:58:26;;;;;;;8.18;2.75;;;7.10;99.90;;;;;;4836414;29;20042;-70
2021/01/12 02:00:52;;;;;;;7.50;2.58;;;7.10;99.90;;;;;;4846585;29;20049;-70
2021/01/12 02:03:24;;;;;;;7.45;2.40;;;7.10;99.90;;;;;;4856876;29;20113;-70
2021/01/12 02:05:57;;;;;;;7.53;3.10;;;7.10;99.90;;;;;;4836110;29;20329;-70
2021/01/12 02:08:29;;;;;;;9.50;2.95;;;7.10;99.90;;;;;;4848963;29;20050;-70
2021/01/12 02:11:00;;;;;;;9.50;3.03;;;7.10;99.90;;;;;;4850596;29;20081;-70
2021/01/12 02:13:30;;;;;;;8.45;2.83;;;7.10;99.90;;;;;;4849023;29;20136;-70
2021/01/12 02:16:00;;;;;;;5.65;2.22;;;7.10;99.90;;;;;;4853125;29;20045;-70
2021/01/12 02:18:33;;;;;;;6.18;2.58;;;7.10;99.90;;;;;;4852753;29;20052;-70
2021/01/12 02:21:02;;;;;;;6.05;2.38;;;7.10;99.90;;;;;;4849870;29;20136;-71
2021/01/12 02:23:42;;;;;;;7.88;2.97;;;7.10;99.90;;;;;;4852476;29;20136;-70
2021/01/12 02:26:08;;;;;;;5.85;2.70;;;7.10;99.90;;;;;;4831793;29;20061;-70
2021/01/12 02:28:35;;;;;;;6.97;2.60;;;7.10;99.90;;;;;;4845931;29;20068;-71
2021/01/12 02:31:01;;;;;;;6.30;2.72;;;7.10;99.90;;;;;;4849847;29;20058;-71
2021/01/12 02:33:28;;;;;;;6.07;2.90;;;7.10;99.90;;;;;;4856847;29;20058;-70
2021/01/12 02:35:57;;;;;;;5.57;2.35;;;7.20;99.90;;;;;;4848375;29;20410;-71
2021/01/12 02:38:23;;;;;;;7.55;2.92;;;7.10;99.90;;;;;;4851872;29;20049;-71
2021/01/12 02:40:50;;;;;;;5.10;2.58;;;7.20;99.90;;;;;;4843637;29;20046;-70
2021/01/12 02:43:16;;;;;;;8.75;2.70;;;7.20;99.90;;;;;;4852925;29;20623;-69
2021/01/12 02:45:44;;;;;;;5.75;2.70;;;7.20;99.90;;;;;;4844118;29;20427;-71
2021/01/12 02:48:10;;;;;;;5.18;2.45;;;7.20;99.90;;;;;;4849289;29;20052;-72
2021/01/12 02:50:36;;;;;;;4.55;2.67;;;7.20;99.90;;;;;;4851755;29;20080;-72
2021/01/12 02:53:03;;;;;;;3.50;2.42;;;7.20;99.90;;;;;;4857178;29;20239;-72
2021/01/12 02:55:29;;;;;;;5.10;2.30;;;7.20;99.90;;;;;;4850046;29;20565;-72
2021/01/12 02:57:55;;;;;;;3.53;2.20;;;7.20;99.90;;;;;;4850962;29;20100;-71
2021/01/12 03:00:22;;;;;;;6.93;2.50;;;7.20;99.90;;;;;;4855563;29;20055;-72
2021/01/12 03:02:48;;;;;;;4.30;2.40;;;7.20;99.90;;;;;;4855175;29;20041;-72
2021/01/12 03:05:15;;;;;;;3.22;2.17;;;7.20;99.90;;;;;;4858107;29;20052;-70
2021/01/12 03:07:42;;;;;;;5.65;2.50;;;7.20;99.90;;;;;;4858464;29;20053;-70
2021/01/12 03:10:10;;;;;;;4.07;2.08;;;7.30;99.90;;;;;;4848034;29;20121;-70
2021/01/12 03:12:36;;;;;;;4.90;2.03;;;7.30;99.90;;;;;;4857142;29;20049;-70
2021/01/12 03:15:03;;;;;;;3.35;2.67;;;7.20;99.90;;;;;;4858334;29;20365;-69
2021/01/12 03:17:29;;;;;;;3.60;2.08;;;7.30;99.90;;;;;;4857736;29;20054;-69
2021/01/12 03:19:56;;;;;;;3.28;1.70;;;7.30;99.90;;;;;;4855974;29;20056;-69
2021/01/12 03:22:22;;;;;;;2.70;1.90;;;7.30;99.90;;;;;;4836703;29;20086;-70
2021/01/12 03:24:48;;;;;;;3.03;1.80;;;7.30;99.90;;;;;;4852315;29;20049;-70
2021/01/12 03:27:14;;;;;;;4.00;2.00;;;7.30;99.90;;;;;;4858704;29;20056;-71
2021/01/12 03:29:40;;;;;;;3.70;1.95;;;7.30;99.90;;;;;;4854060;29;20061;-71
2021/01/12 03:32:07;;;;;;;4.18;1.83;;;7.30;99.90;;;;;;4856506;29;20421;-71
2021/01/12 03:34:33;;;;;;;3.22;1.70;;;7.30;99.90;;;;;;4832084;29;20065;-71
2021/01/12 03:36:59;;;;;;;4.90;2.03;;;7.30;99.90;;;;;;4857476;29;20132;-71
2021/01/12 03:39:25;;;;;;;4.78;2.20;;;7.30;99.90;;;;;;4840954;29;20084;-71
2021/01/12 03:41:51;;;;;;;4.32;2.00;;;7.30;99.90;;;;;;4855027;29;20121;-71
2021/01/12 03:44:18;;;;;;;4.20;1.80;;;7.30;99.90;;;;;;4853107;29;20053;-71
2021/01/12 03:46:44;;;;;;;3.00;1.83;;;7.40;99.90;;;;;;4857989;29;20132;-71
2021/01/12 03:49:11;;;;;;;3.28;1.65;;;7.40;99.90;;;;;;4857635;29;20061;-71
2021/01/12 03:51:37;;;;;;;2.88;1.92;;;7.40;99.90;;;;;;4856350;29;20088;-71
2021/01/12 03:54:03;;;;;;;3.20;1.55;;;7.40;99.90;;;;;;4833771;29;20164;-71
2021/01/12 03:56:29;;;;;;;2.92;1.92;;;7.40;99.90;;;;;;4845922;29;20049;-71
2021/01/12 03:58:56;;;;;;;4.00;1.52;;;7.40;99.90;;;;;;4836443;29;20113;-71
2021/01/12 04:01:22;;;;;;;3.63;1.42;;;7.40;99.90;;;;;;4847884;29;20049;-71
2021/01/12 04:03:49;;;;;;;3.22;1.90;;;7.40;99.90;;;;;;4852056;29;20405;-71
2021/01/12 04:06:16;;;;;;;4.28;2.03;;;7.40;99.90;;;;;;4848671;29;20484;-71
2021/01/12 04:08:46;;;;;;;3.65;1.90;;;7.40;99.90;;;;;;4845132;29;20057;-72
2021/01/12 04:11:17;;;;;;;3.90;1.80;;;7.40;99.90;;;;;;4858721;29;20057;-71
2021/01/12 04:13:46;;;;;;;2.58;1.70;;;7.40;99.90;;;;;;4835329;29;20054;-71
2021/01/12 04:16:12;;;;;;;3.45;2.13;;;7.40;99.90;;;;;;4853575;29;20083;-71
2021/01/12 04:18:38;;;;;;;3.58;1.90;;;7.40;99.90;;;;;;4851378;29;20568;-71
2021/01/12 04:21:04;;;;;;;4.40;2.10;;;7.50;99.90;;;;;;4846475;29;20046;-71
2021/01/12 04:23:31;;;;;;;4.57;1.77;;;7.50;99.90;;;;;;4853604;29;20050;-71
2021/01/12 04:25:58;;;;;;;4.03;1.80;;;7.50;99.90;;;;;;4834907;29;20081;-72
2021/01/12 04:28:24;;;;;;;3.13;1.60;;;7.50;99.90;;;;;;4815700;29;20046;-72
2021/01/12 04:30:50;;;;;;;3.17;1.70;;;7.50;99.90;;;;;;4839164;29;20050;-72
2021/01/12 04:33:16;;;;;;;3.25;1.58;;;7.50;99.90;;;;;;4843694;29;20594;-72
2021/01/12 04:35:43;;;;;;;2.80;1.65;;;7.50;99.90;;;;;;4830405;29;20068;-72
2021/01/12 04:38:09;;;;;;;2.72;1.70;;;7.60;99.90;;;;;;4843601;29;20045;-71
2021/01/12 04:40:36;;;;;;;3.15;1.90;;;7.50;99.90;;;;;;4843168;29;20135;-72
2021/01/12 04:43:02;;;;;;;2.50;1.65;;;7.60;99.90;;;;;;4845067;29;20053;-72
2021/01/12 04:45:28;;;;;;;3.50;2.15;;;7.60;99.90;;;;;;4825840;29;20462;-69
2021/01/12 04:47:55;;;;;;;4.68;2.15;;;7.60;99.90;;;;;;4847186;29;20168;-69
2021/01/12 04:50:21;;;;;;;3.30;1.80;;;7.60;99.90;;;;;;4853688;29;20058;-69
2021/01/12 04:52:50;;;;;;;4.43;1.83;;;7.60;99.90;;;;;;4848547;29;20049;-69
2021/01/12 04:55:17;;;;;;;3.83;1.70;;;7.60;99.90;;;;;;4844555;29;20401;-69
2021/01/12 04:57:44;;;;;;;3.72;2.00;;;7.60;99.90;;;;;;4845032;29;20520;-69
2021/01/12 05:00:25;;;;;;;4.15;1.70;;;7.70;99.90;;;;;;4843095;29;20042;-70
2021/01/12 05:03:12;;;;;;;2.80;1.88;;;7.70;99.90;;;;;;4844751;29;20389;-72
2021/01/12 05:05:39;;;;;;;5.15;2.22;;;7.70;99.90;;;;;;4826649;29;20042;-72
2021/01/12 05:08:17;;;;;;;3.58;2.25;;;7.70;99.90;;;;;;4845421;29;20075;-72
2021/01/12 05:10:50;;;;;;;4.40;1.77;;;7.70;99.90;;;;;;4847490;29;20049;-72
2021/01/12 05:13:20;;;;;;;3.47;2.00;;;7.70;99.90;;;;;;4843702;29;20307;-72
2021/01/12 05:15:47;;;;;;;5.50;1.77;;;7.70;99.90;;;;;;4845265;29;20057;-72
2021/01/12 05:18:17;;;;;;;5.55;2.35;;;7.70;99.90;;;;;;4843445;29;20453;-73
2021/01/12 05:20:47;;;;;;;3.33;1.80;;;7.80;99.90;;;;;;4845939;29;20053;-72
2021/01/12 05:23:21;;;;;;;5.85;1.83;;;7.80;99.90;;;;;;4850115;29;20145;-72
2021/01/12 05:25:49;;;;;;;3.03;1.80;;;7.80;99.90;;;;;;4849458;29;20504;-72
2021/01/12 05:28:17;;;;;;;3.72;1.70;;;7.80;99.90;;;;;;4854685;29;20097;-72
2021/01/12 05:30:47;;;;;;;4.03;2.00;;;7.80;99.90;;;;;;4854964;29;20073;-72
2021/01/12 05:33:20;;;;;;;3.50;1.38;;;7.80;99.90;;;;;;4832781;29;20554;-70
2021/01/12 05:35:49;;;;;;;4.28;1.70;;;7.90;99.90;;;;;;4841371;29;20145;-70
2021/01/12 05:38:27;;;;;;;3.28;1.75;;;7.90;99.90;;;;;;4838213;29;20050;-73
2021/01/12 05:40:55;;;;;;;2.45;1.27;;;7.90;99.90;;;;;;4841133;29;20468;-73
2021/01/12 05:43:41;;;;;;;3.22;1.67;;;7.90;99.90;;;;;;4850360;29;20401;-73
2021/01/12 05:46:09;;;;;;;2.08;1.35;;;7.90;99.90;;;;;;4852406;29;20057;-73
2021/01/12 05:48:39;;;;;;;4.85;1.73;;;8.00;99.90;;;;;;4852516;29;20053;-73
2021/01/12 05:51:08;;;;;;;1.95;1.05;;;7.90;99.90;;;;;;4857401;29;20057;-73
2021/01/12 05:53:46;;;;;;;2.92;1.42;;;8.00;99.90;;;;;;4856385;29;20062;-73
2021/01/12 05:56:24;;;;;;;4.37;1.33;;;7.90;99.90;;;;;;4849226;29;20054;-72
2021/01/12 05:58:52;;;;;;;3.05;1.20;;;7.90;99.90;;;;;;4855490;29;20046;-73
2021/01/12 06:01:43;;;;;;;3.10;1.00;;;7.90;99.90;;;;;;4831140;29;20152;-73
2021/01/12 06:04:11;;;;;;;2.88;1.00;;;7.90;99.90;;;;;;4850615;29;20389;-73
2021/01/12 06:06:39;;;;;;;2.78;0.95;;;7.80;99.90;;;;;;4849965;29;20050;-72
2021/01/12 06:09:07;;;;;;;3.28;0.98;;;7.80;99.90;;;;;;4838269;29;20084;-73
2021/01/12 06:11:35;;;;;;;3.30;1.13;;;7.80;99.90;;;;;;4850850;29;20509;-73
2021/01/12 06:14:10;;;;;;;2.20;1.10;;;7.80;99.90;;;;;;4852197;29;20056;-73
2021/01/12 06:16:38;;;;;;;2.22;0.90;;;7.80;99.90;;;;;;4856647;29;20053;-73
2021/01/12 06:19:05;;;;;;;2.65;0.82;;;7.70;99.90;;;;;;4854797;29;20100;-72
2021/01/12 06:21:44;;;;;;;4.28;1.00;;;7.70;99.90;;;;;;4853588;29;20410;-72
2021/01/12 06:24:14;;;;;;;2.20;0.68;;;7.70;99.90;;;;;;4855730;29;20060;-72
2021/01/12 06:26:41;;;;;;;3.33;0.98;;;7.70;99.90;;;;;;4857301;29;20065;-72
2021/01/12 06:29:07;;;;;;;4.05;1.17;;;7.70;99.90;;;;;;4856644;29;20067;-72
2021/01/12 06:31:45;;;;;;;2.08;0.88;;;7.70;99.90;;;;;;4857436;29;20053;-72
2021/01/12 06:34:19;;;;;;;3.67;1.23;;;7.70;99.90;;;;;;4853876;29;20057;-72
2021/01/12 06:36:51;;;;;;;3.70;1.50;;;7.70;99.90;;;;;;4830274;29;20050;-72
2021/01/12 06:39:22;;;;;;;1.73;0.90;;;7.70;99.90;;;;;;4848898;29;20474;-72
2021/01/12 06:41:50;;;;;;;2.53;1.00;;;7.70;99.90;;;;;;4847508;29;20045;-72
2021/01/12 06:44:24;;;;;;;7.25;1.42;;;7.70;99.90;;;;;;4851569;29;20458;-72
2021/01/12 06:46:53;;;;;;;2.47;1.27;;;7.70;99.90;;;;;;4855863;29;20071;-72
2021/01/12 06:49:21;;;;;;;;;;;7.70;99.90;;;;;;4831941;29;20627;-72
2021/01/12 06:52:00;;;;;;;2.90;1.00;;;7.70;99.90;;;;;;4847931;29;20042;-72
2021/01/12 06:54:37;;;;;;;4.18;1.17;;;7.70;99.90;;;;;;4853815;29;20077;-72
2021/01/12 06:57:12;;;;;;;2.60;1.20;;;7.70;99.90;;;;;;4850065;29;20057;-72
2021/01/12 06:59:43;;;;;;;1.50;0.90;;;7.70;99.90;;;;;;4846946;29;20129;-72
2021/01/12 07:02:27;;;;;;;1.70;1.00;;;7.70;99.90;;;;;;4850346;29;20064;-72
2021/01/12 07:05:05;;;;;;;2.75;0.90;;;7.70;99.90;;;;;;4849932;29;20053;-72
2021/01/12 07:07:35;;;;;;;3.03;0.98;;;7.60;99.90;;;;;;4854033;29;20055;-72
2021/01/12 07:10:06;;;;;;;1.75;0.88;;;7.60;99.90;;;;;;4844503;29;20156;-72
2021/01/12 07:12:32;;;;;;;3.05;1.10;;;7.60;99.90;;;;;;4850796;29;20062;-72
2021/01/12 07:15:10;;;;;;;1.48;0.75;;;7.60;99.90;;;;;;4855397;29;20136;-72
2021/01/12 07:17:55;;;;;;;2.33;1.20;;;7.50;99.90;;;;;;4853283;29;20091;-72
2021/01/12 07:20:25;;;;;;;2.45;1.00;;;7.50;99.90;;;;;;4855975;29;20057;-72
2021/01/12 07:22:51;;;;;;;2.35;0.90;;;7.50;99.90;;;;;;4853954;29;20045;-72
2021/01/12 07:25:21;;;;;;;2.53;0.90;;;7.50;99.90;;;;;;4857120;29;20478;-72
2021/01/12 07:27:57;;;;;;;1.33;1.00;;;7.50;99.90;;;;;;4856200;29;20481;-71
2021/01/12 07:30:24;;;;;;;1.73;0.63;;;7.50;99.90;;;;;;4847130;29;20053;-72
2021/01/12 07:32:58;;;;;;;2.13;1.10;;;7.50;99.90;;;;;;4852407;29;20057;-72
2021/01/12 07:35:25;;;;;;;3.00;1.10;;;7.40;99.90;;;;;;4857795;29;20059;-72
2021/01/12 07:37:52;;;;;;;2.42;1.10;;;7.40;99.90;;;;;;4856971;29;20133;-72
2021/01/12 07:40:19;;;;;;;2.97;1.75;;;7.40;99.90;;;;;;4857204;29;20056;-72
2021/01/12 07:43:06;;;;;;;4.47;1.30;;;7.40;99.90;;;;;;4855344;29;20044;-72
2021/01/12 07:45:35;;;;;;;2.92;1.02;;;7.40;99.90;;;;;;4854643;29;20136;-72
2021/01/12 07:48:03;;;;;;;2.85;1.15;;;7.40;99.90;;;;;;4855509;29;20045;-71
2021/01/12 07:50:31;;;;;;;3.23;1.10;;;7.40;99.90;;;;;;4860290;29;20065;-71
2021/01/12 07:52:58;;;;;;;1.65;0.85;;;7.40;99.90;;;;;;4851686;29;20098;-72
2021/01/12 07:55:25;;;;;;;3.45;1.27;;;7.40;99.90;;;;;;4843330;29;20132;-71
2021/01/12 07:57:53;;;;;;;2.97;0.98;;;7.40;99.90;;;;;;4846638;29;20060;-71
2021/01/12 08:00:20;;;;;;;2.13;1.13;;;7.30;99.90;;;;;;4843268;29;20501;-71
2021/01/12 08:02:52;;;;;;;3.22;1.20;;;7.40;99.90;;;;;;4845229;29;20058;-71
2021/01/12 08:05:24;;;;;;;2.35;1.05;;;7.30;99.90;;;;;;4830294;29;20377;-71
2021/01/12 08:08:04;;;;;;;2.08;1.10;;;7.30;99.90;;;;;;4847663;29;20545;-71
2021/01/12 08:10:33;;;;;;;2.80;1.35;;;7.30;99.90;;;;;;4839706;29;20058;-71
2021/01/12 08:13:11;;;;;;;1.95;1.13;;;7.30;99.90;;;;;;4845575;29;20053;-71
2021/01/12 08:15:41;;;;;;;2.25;1.30;;;7.20;99.90;;;;;;4846272;29;20057;-71
2021/01/12 08:18:11;;;;;;;1.73;1.23;;;7.20;99.90;;;;;;4842744;29;20482;-71
2021/01/12 08:20:38;;;;;;;2.78;1.40;;;7.20;99.90;;;;;;4845047;29;20046;-71
2021/01/12 08:23:05;;;;;;;1.98;1.35;;;7.20;99.90;;;;;;4845577;29;20053;-71
2021/01/12 08:25:34;;;;;;;3.50;1.30;;;7.20;99.90;;;;;;4830672;29;20045;-71
2021/01/12 08:28:03;;;;;;;2.20;1.27;;;7.20;99.90;;;;;;4843479;29;20054;-71
2021/01/12 08:30:34;;;;;;;2.40;1.48;;;7.20;99.90;;;;;;4840991;29;20176;-71
2021/01/12 08:33:09;;;;;;;2.88;2.05;;;7.20;99.90;;;;;;4824742;29;20054;-71
2021/01/12 08:35:44;;;;;;;1.95;1.30;;;7.10;99.90;;;;;;4842766;29;20438;-71
2021/01/12 08:38:15;;;;;;;2.97;1.65;;;7.10;99.90;;;;;;4842004;29;20089;-71
2021/01/12 08:40:45;;;;;;;1.85;1.35;;;7.00;99.90;;;;;;4845673;29;20056;-71
2021/01/12 08:43:16;;;;;;;2.60;1.60;;;7.00;99.90;;;;;;4828551;29;20060;-72
2021/01/12 08:45:43;;;;;;;2.78;1.52;;;7.00;99.90;;;;;;4836270;29;20505;-71
2021/01/12 08:48:12;;;;;;;3.78;2.08;;;7.00;99.90;;;;;;4824039;29;20060;-72
2021/01/12 08:50:42;;;;;;;2.00;1.15;;;7.00;99.90;;;;;;4823741;29;20140;-72
2021/01/12 08:53:09;;;;;;;3.30;1.88;;;6.90;99.90;;;;;;4844230;29;20118;-72
2021/01/12 08:55:35;;;;;;;1.92;1.33;;;7.00;99.90;;;;;;4843868;29;20067;-71
2021/01/12 08:58:09;;;;;;;1.88;1.48;;;6.90;99.90;;;;;;4844851;29;20125;-71
2021/01/12 09:00:38;;;;;;;3.15;1.48;;;7.00;99.90;;;;;;4837687;29;20058;-71
2021/01/12 09:03:06;;;;;;;4.10;1.20;;;6.90;99.90;;;;;;4838683;29;20381;-71
2021/01/12 09:05:38;;;;;;;3.42;1.42;;;6.90;99.90;;;;;;4837810;29;20042;-71
2021/01/12 09:08:10;;;;;;;2.20;1.20;;;6.90;99.90;;;;;;4841773;29;20062;-71
2021/01/12 09:10:40;;;;;;;2.65;1.35;;;6.90;99.90;;;;;;4830104;29;20053;-71
2021/01/12 09:13:08;;;;;;;2.22;1.33;;;6.90;99.90;;;;;;4843612;29;21453;-71
2021/01/12 09:15:38;;;;;;;1.80;0.90;;;6.80;99.90;;;;;;4843155;29;20569;-71
2021/01/12 09:18:17;;;;;;;1.80;0.95;;;6.90;99.90;;;;;;4837817;29;20144;-71
2021/01/12 09:20:56;;;;;;;2.83;0.70;;;6.80;99.90;;;;;;4837534;29;20140;-71
2021/01/12 09:23:23;;;;;;;5.15;1.40;;;6.80;99.90;;;;;;4840534;29;20128;-71
2021/01/12 09:25:51;;;;;;;2.28;1.00;;;6.90;99.90;;;;;;4838147;29;20049;-72
2021/01/12 09:28:23;;;;;;;2.20;1.10;;;6.90;99.90;;;;;;4824137;29;20454;-71
2021/01/12 09:30:51;;;;;;;3.88;1.23;;;6.90;99.90;;;;;;4843375;29;20097;-70
2021/01/12 09:33:24;;;;;;;2.63;1.17;;;6.90;99.90;;;;;;4850539;29;20144;-71
2021/01/12 09:36:06;;;;;;;2.03;1.08;;;6.90;99.90;;;;;;4839718;29;20474;-71
2021/01/12 09:38:40;;;;;;;2.53;1.52;;;6.90;99.90;;;;;;4844241;29;20048;-71
2021/01/12 09:41:07;;;;;;;1.48;0.77;;;6.90;99.90;;;;;;4837399;29;20063;-72
2021/01/12 09:43:34;;;;;;;3.17;0.90;;;6.90;99.90;;;;;;4835204;29;20066;-72
2021/01/12 09:46:01;;;;;;;2.92;0.93;;;6.90;99.90;;;;;;4842444;29;20053;-72
2021/01/12 09:48:28;;;;;;;4.25;0.90;;;6.90;99.90;;;;;;4841691;29;20094;-72
2021/01/12 09:50:54;;;;;;;3.88;0.90;;;6.90;99.90;;;;;;4841077;29;20152;-71
2021/01/12 09:53:21;;;;;;;3.05;1.05;;;6.90;99.90;;;;;;4839843;29;20060;-72
2021/01/12 09:55:47;;;;;;;2.22;0.80;;;6.80;99.90;;;;;;4843960;29;20065;-71
2021/01/12 09:58:24;;;;;;;4.97;0.93;;;6.80;99.90;;;;;;4842503;29;20083;-71
2021/01/12 10:00:51;;;;;;;2.15;0.75;;;6.80;99.90;;;;;;4839683;29;20045;-71
2021/01/12 10:03:17;;;;;;;2.00;0.80;;;6.70;99.90;;;;;;4842319;29;20049;-72
2021/01/12 10:05:45;;;;;;;1.40;0.70;;;6.60;99.90;;;;;;4842499;29;20225;-71
2021/01/12 10:08:11;;;;;;;1.85;0.82;;;6.60;99.90;;;;;;4841806;29;20054;-71
2021/01/12 10:10:37;;;;;;;1.13;0.65;;;6.50;99.90;;;;;;4839421;29;20050;-71
2021/01/12 10:13:04;;;;;;;1.75;0.85;;;6.40;99.90;;;;;;4844933;29;20156;-72
2021/01/12 10:15:31;;;;;;;2.22;0.88;;;6.40;99.90;;;;;;4846632;29;20483;-72
2021/01/12 11:45:43;;;;;;;4.07;0.80;;;11.00;99.90;;;;;;4845585;29;20049;-70
2021/01/12 11:48:10;;;;;;;1.67;0.50;;;11.60;99.90;;;;;;4811855;29;20287;-70
2021/01/12 11:50:36;;;;;;;2.75;0.52;;;11.90;99.90;;;;;;4811386;29;20443;-70
2021/01/12 11:53:03;;;;;;;1.60;0.43;;;12.10;99.90;;;;;;4810827;29;20066;-70
2021/01/12 11:55:30;;;;;;;3.20;0.50;;;12.30;99.90;;;;;;4810731;29;20126;-69
2021/01/12 11:57:56;;;;;;;3.30;0.80;;;12.50;99.90;;;;;;4808652;29;20046;-69
2021/01/12 12:00:23;;;;;;;2.78;0.60;;;12.60;99.90;;;;;;4807490;29;20404;-69
2021/01/12 12:02:49;;;;;;;5.80;0.88;;;12.70;99.90;;;;;;4809806;29;20127;-69
2021/01/12 12:05:16;;;;;;;3.78;0.82;;;12.50;99.90;;;;;;4801829;29;20523;-69
2021/01/12 12:07:43;;;;;;;4.38;0.60;;;12.20;99.90;;;;;;4807358;29;20058;-70
2021/01/12 12:10:14;;;;;;;3.88;1.05;;;11.80;99.90;;;;;;4824696;29;20062;-69
2021/01/12 12:12:44;;;;;;;3.10;0.60;;;11.40;99.90;;;;;;4823907;29;20061;-69
2021/01/12 12:15:14;;;;;;;4.50;0.90;;;11.30;99.90;;;;;;4807904;29;20138;-69
2021/01/12 12:17:45;;;;;;;3.20;0.80;;;11.40;99.90;;;;;;4807878;29;20050;-69
2021/01/12 12:20:14;;;;;;;2.92;0.65;;;11.60;99.90;;;;;;4836974;29;20053;-69
2021/01/12 12:22:41;;;;;;;4.63;0.73;;;11.80;99.90;;;;;;4809435;29;21993;-69
2021/01/12 12:25:10;;;;;;;4.18;1.00;;;11.90;99.90;;;;;;4808687;29;20141;-69
2021/01/12 12:27:37;;;;;;;2.20;0.60;;;12.20;99.90;;;;;;4810574;29;20094;-69
2021/01/12 12:30:05;;;;;;;3.80;0.80;;;12.40;99.90;;;;;;4810238;29;20058;-69
2021/01/12 12:32:32;;;;;;;3.30;0.60;;;12.60;99.90;;;;;;4810029;29;20130;-69
2021/01/12 12:34:59;;;;;;;1.17;0.45;;;13.00;99.90;;;;;;4805603;29;20063;-69
2021/01/12 12:37:25;;;;;;;3.10;0.90;;;13.20;99.90;;;;;;4808791;29;20050;-69
2021/01/12 12:39:52;;;;;;;4.90;0.88;;;13.10;99.90;;;;;;4810582;29;20053;-69
2021/01/12 12:42:19;;;;;;;3.17;0.47;;;13.00;99.90;;;;;;4810500;29;20053;-69
2021/01/12 12:44:45;;;;;;;2.45;0.60;;;12.90;99.90;;;;;;4806864;29;20065;-69
2021/01/12 12:47:13;;;;;;;2.60;0.47;;;12.90;99.90;;;;;;4841571;29;20141;-69
2021/01/12 12:49:40;;;;;;;2.47;0.60;;;12.80;99.90;;;;;;4827292;29;20060;-69
2021/01/12 12:52:06;;;;;;;3.13;0.65;;;12.50;99.90;;;;;;4829750;29;20062;-69
2021/01/12 12:54:33;;;;;;;1.67;0.50;;;12.30;99.90;;;;;;4827842;29;20061;-69
2021/01/12 12:56:59;;;;;;;2.67;0.55;;;12.40;99.90;;;;;;4831260;29;20056;-69
2021/01/12 12:59:26;;;;;;;2.92;0.93;;;12.60;99.90;;;;;;4827492;29;20054;-69
2021/01/12 13:01:54;;;;;;;2.38;0.50;;;12.70;99.90;;;;;;4829176;29;20113;-69
2021/01/12 13:04:21;;;;;;;5.00;0.52;;;12.70;99.90;;;;;;4824824;29;20102;-69
2021/01/12 13:06:51;;;;;;;2.38;0.40;;;12.80;99.90;;;;;;4826711;29;20054;-69
2021/01/12 13:09:19;;;;;;;2.70;0.60;;;13.00;99.90;;;;;;4829298;29;20458;-69
2021/01/12 13:11:50;;;;;;;3.22;0.68;;;13.10;99.90;;;;;;4843763;29;20459;-69
2021/01/12 13:14:16;;;;;;;5.38;0.60;;;13.10;99.90;;;;;;4843804;29;20148;-69
2021/01/12 13:16:46;;;;;;;4.82;0.80;;;13.20;99.90;;;;;;4828720;29;20086;-70
2021/01/12 13:19:17;;;;;;;1.23;0.50;;;13.30;99.90;;;;;;4844820;29;20474;-69
2021/01/12 13:21:54;;;;;;;4.72;0.70;;;13.50;99.90;;;;;;4829685;29;20117;-69
2021/01/12 13:24:33;;;;;;;2.92;0.55;;;13.50;99.90;;;;;;4843473;29;20054;-69
2021/01/12 13:27:01;;;;;;;2.47;0.80;;;13.30;99.90;;;;;;4826898;29;20093;-69
2021/01/12 13:29:28;;;;;;;;;;;13.20;99.90;;;;;;4839828;29;20054;-69
2021/01/12 13:31:55;;;;;;;2.95;0.68;;;12.90;99.90;;;;;;4825740;29;19967;-70
2021/01/12 13:34:22;;;;;;;3.70;0.80;;;12.50;99.90;;;;;;4827342;29;20054;-69
2021/01/12 13:36:48;;;;;;;4.07;0.98;;;12.10;99.90;;;;;;4828679;29;20403;-69
2021/01/12 13:39:15;;;;;;;4.68;0.77;;;11.70;99.90;;;;;;4831281;29;20432;-69
2021/01/12 13:41:41;;;;;;;5.13;1.00;;;11.30;99.90;;;;;;4827548;29;20452;-68
2021/01/12 13:44:08;;;;;;;3.45;0.70;;;10.90;99.90;;;;;;4825671;29;20133;-69
2021/01/12 13:46:41;;;;;;;2.90;0.82;;;10.50;99.90;;;;;;4827870;29;20077;-69
2021/01/12 13:49:08;;;;;;;1.60;0.60;;;10.20;99.90;;;;;;4841609;29;20156;-69
2021/01/12 13:51:40;;;;;;;3.92;0.95;;;9.90;99.90;;;;;;4843224;29;20066;-69
2021/01/12 13:54:07;;;;;;;3.60;0.65;;;9.60;99.90;;;;;;4825413;29;20688;-69
2021/01/12 13:56:39;;;;;;;3.42;0.85;;;9.50;99.90;;;;;;4827376;29;20421;-69
2021/01/12 13:59:10;;;;;;;4.30;0.80;;;9.40;99.90;;;;;;4842888;29;20144;-69
2021/01/12 14:01:41;;;;;;;5.50;0.82;;;9.20;99.90;;;;;;4826530;29;20050;-69
2021/01/12 14:04:09;;;;;;;5.28;0.80;;;9.20;99.90;;;;;;4841946;29;20477;-69
2021/01/12 14:06:35;;;;;;;3.58;0.70;;;9.30;99.90;;;;;;4829241;29;20516;-69
2021/01/12 14:09:02;;;;;;;4.20;0.77;;;9.30;99.90;;;;;;4826561;29;20061;-69
2021/01/12 14:11:28;;;;;;;2.40;0.93;;;9.40;99.90;;;;;;4826835;29;20428;-69
2021/01/12 14:13:55;;;;;;;2.05;0.60;;;9.50;99.90;;;;;;4825940;29;20451;-69
2021/01/12 14:16:22;;;;;;;5.35;0.85;;;9.60;99.90;;;;;;4825722;29;20057;-69
2021/01/12 14:18:49;;;;;;;4.18;0.90;;;9.70;99.90;;;;;;4825325;29;20058;-69
2021/01/12 14:21:21;;;;;;;4.05;0.90;;;9.80;99.90;;;;;;4826968;29;20093;-69
2021/01/12 14:23:52;;;;;;;5.00;1.00;;;9.90;99.90;;;;;;4826162;29;20054;-69
2021/01/12 14:26:19;;;;;;;4.05;0.93;;;9.80;99.90;;;;;;4826991;29;20134;-69
2021/01/12 14:28:46;;;;;;;2.97;0.70;;;9.80;99.90;;;;;;4827058;29;20053;-70
2021/01/12 14:31:13;;;;;;;2.47;0.70;;;9.60;99.90;;;;;;4826456;29;20201;-70